sensor_id;sensor_type;location;lat;lon;timestamp;temperature;humidity
13694;DHT22;6919;52.344;14.518;2023-08-30T00:01:07;14.00;99.90
13694;DHT22;6919;52.344;14.518;2023-08-30T00:03:37;14.10;99.90
13694;DHT22;6919;52.344;14.518;2023-08-30T00:06:07;14.10;99.90
13694;DHT22;6919;52.344;14.518;2023-08-30T00:08:37;14.10;99.90
13694;DHT22;6919;52.344;14.518;2023-08-30T00:11:05;14.00;99.90
13694;DHT22;6919;52.344;14.518;2023-08-30T00:13:33;14.00;99.90
13694;DHT22;6919;52.344;14.518;2023-08-30T00:16:02;14.00;99.90
13694;DHT22;6919;52.344;14.518;2023-08-30T00:18:30;14.00;99.90
13694;DHT22;6919;52.344;14.518;2023-08-30T00:21:00;14.00;99.90
13694;DHT22;6919;52.344;14.518;2023-08-30T00:23:28;14.00;99.90
13694;DHT22;6919;52.344;14.518;2023-08-30T00:25:56;13.90;99.90
13694;DHT22;6919;52.344;14.518;2023-08-30T00:28:25;13.90;99.90
13694;DHT22;6919;52.344;14.518;2023-08-30T00:30:54;13.90;99.90
13694;DHT22;6919;52.344;14.518;2023-08-30T00:33:22;13.90;99.90
13694;DHT22;6919;52.344;14.518;2023-08-30T00:35:56;13.90;99.90
13694;DHT22;6919;52.344;14.518;2023-08-30T00:38:27;13.90;99.90
13694;DHT22;6919;52.344;14.518;2023-08-30T00:40:56;13.90;99.90
13694;DHT22;6919;52.344;14.518;2023-08-30T00:43:24;13.90;99.90
13694;DHT22;6919;52.344;14.518;2023-08-30T00:45:52;13.90;99.90
13694;DHT22;6919;52.344;14.518;2023-08-30T00:48:21;13.90;99.90
13694;DHT22;6919;52.344;14.518;2023-08-30T00:50:50;13.90;99.90
13694;DHT22;6919;52.344;14.518;2023-08-30T00:53:18;13.90;99.90
13694;DHT22;6919;52.344;14.518;2023-08-30T00:55:48;14.00;99.90
13694;DHT22;6919;52.344;14.518;2023-08-30T00:58:17;13.90;99.90
13694;DHT22;6919;52.344;14.518;2023-08-30T01:00:45;13.90;99.90
13694;DHT22;6919;52.344;14.518;2023-08-30T01:03:14;13.90;99.90
13694;DHT22;6919;52.344;14.518;2023-08-30T01:05:43;13.90;99.90
13694;DHT22;6919;52.344;14.518;2023-08-30T01:08:12;14.00;99.90
13694;DHT22;6919;52.344;14.518;2023-08-30T01:10:51;13.90;99.90
13694;DHT22;6919;52.344;14.518;2023-08-30T01:13:26;14.00;99.90
13694;DHT22;6919;52.344;14.518;2023-08-30T01:15:58;14.00;99.90
13694;DHT22;6919;52.344;14.518;2023-08-30T01:18:32;14.00;99.90
13694;DHT22;6919;52.344;14.518;2023-08-30T01:21:04;14.00;99.90
13694;DHT22;6919;52.344;14.518;2023-08-30T01:23:45;14.00;99.90
13694;DHT22;6919;52.344;14.518;2023-08-30T01:26:24;14.00;99.90
13694;DHT22;6919;52.344;14.518;2023-08-30T01:29:05;13.90;99.90
13694;DHT22;6919;52.344;14.518;2023-08-30T01:31:37;13.90;99.90
13694;DHT22;6919;52.344;14.518;2023-08-30T01:34:07;14.00;99.90
13694;DHT22;6919;52.344;14.518;2023-08-30T01:36:36;14.00;99.90
13694;DHT22;6919;52.344;14.518;2023-08-30T01:39:05;13.90;99.90
13694;DHT22;6919;52.344;14.518;2023-08-30T01:41:35;13.90;99.90
13694;DHT22;6919;52.344;14.518;2023-08-30T01:44:06;14.00;99.90
13694;DHT22;6919;52.344;14.518;2023-08-30T01:46:37;13.90;99.90
13694;DHT22;6919;52.344;14.518;2023-08-30T01:49:07;13.90;99.90
13694;DHT22;6919;52.344;14.518;2023-08-30T01:51:38;13.90;99.90
13694;DHT22;6919;52.344;14.518;2023-08-30T01:54:08;13.90;99.90
13694;DHT22;6919;52.344;14.518;2023-08-30T01:56:38;13.90;99.90
13694;DHT22;6919;52.344;14.518;2023-08-30T01:59:08;13.90;99.90
13694;DHT22;6919;52.344;14.518;2023-08-30T02:01:36;14.00;99.90
13694;DHT22;6919;52.344;14.518;2023-08-30T02:04:05;13.90;99.90
13694;DHT22;6919;52.344;14.518;2023-08-30T02:06:38;13.90;99.90
13694;DHT22;6919;52.344;14.518;2023-08-30T02:09:17;13.90;99.90
13694;DHT22;6919;52.344;14.518;2023-08-30T02:11:51;13.80;99.90
13694;DHT22;6919;52.344;14.518;2023-08-30T02:14:24;13.80;99.90
13694;DHT22;6919;52.344;14.518;2023-08-30T02:16:55;13.80;99.90
13694;DHT22;6919;52.344;14.518;2023-08-30T02:19:24;13.80;99.90
13694;DHT22;6919;52.344;14.518;2023-08-30T02:21:53;13.80;99.90
13694;DHT22;6919;52.344;14.518;2023-08-30T02:24:21;13.90;99.90
13694;DHT22;6919;52.344;14.518;2023-08-30T02:26:49;13.80;99.90
13694;DHT22;6919;52.344;14.518;2023-08-30T02:29:19;13.80;99.90
13694;DHT22;6919;52.344;14.518;2023-08-30T02:31:49;13.80;99.90
13694;DHT22;6919;52.344;14.518;2023-08-30T02:34:17;13.90;99.90
13694;DHT22;6919;52.344;14.518;2023-08-30T02:36:46;13.80;99.90
13694;DHT22;6919;52.344;14.518;2023-08-30T02:39:14;13.90;99.90
13694;DHT22;6919;52.344;14.518;2023-08-30T02:41:43;13.80;99.90
13694;DHT22;6919;52.344;14.518;2023-08-30T02:44:11;13.80;99.90
13694;DHT22;6919;52.344;14.518;2023-08-30T02:46:39;13.80;99.90
13694;DHT22;6919;52.344;14.518;2023-08-30T02:49:09;13.90;99.90
13694;DHT22;6919;52.344;14.518;2023-08-30T02:51:39;13.80;99.90
13694;DHT22;6919;52.344;14.518;2023-08-30T02:54:07;13.80;99.90
13694;DHT22;6919;52.344;14.518;2023-08-30T02:56:35;13.90;99.90
13694;DHT22;6919;52.344;14.518;2023-08-30T02:59:03;13.90;99.90
13694;DHT22;6919;52.344;14.518;2023-08-30T03:01:32;14.00;99.90
13694;DHT22;6919;52.344;14.518;2023-08-30T03:04:00;13.90;99.90
13694;DHT22;6919;52.344;14.518;2023-08-30T03:06:30;13.90;99.90
13694;DHT22;6919;52.344;14.518;2023-08-30T03:08:58;13.90;99.90
13694;DHT22;6919;52.344;14.518;2023-08-30T03:11:26;13.80;99.90
13694;DHT22;6919;52.344;14.518;2023-08-30T03:13:55;13.90;99.90
13694;DHT22;6919;52.344;14.518;2023-08-30T03:16:23;13.90;99.90
13694;DHT22;6919;52.344;14.518;2023-08-30T03:18:51;13.90;99.90
13694;DHT22;6919;52.344;14.518;2023-08-30T03:21:20;14.00;99.90
13694;DHT22;6919;52.344;14.518;2023-08-30T03:23:50;13.90;99.90
13694;DHT22;6919;52.344;14.518;2023-08-30T03:26:19;13.90;99.90
13694;DHT22;6919;52.344;14.518;2023-08-30T03:28:47;13.90;99.90
13694;DHT22;6919;52.344;14.518;2023-08-30T03:31:17;13.90;99.90
13694;DHT22;6919;52.344;14.518;2023-08-30T03:33:47;13.90;99.90
13694;DHT22;6919;52.344;14.518;2023-08-30T03:36:17;14.00;99.90
13694;DHT22;6919;52.344;14.518;2023-08-30T03:38:46;14.00;99.90
13694;DHT22;6919;52.344;14.518;2023-08-30T03:41:16;14.00;99.90
13694;DHT22;6919;52.344;14.518;2023-08-30T03:43:44;13.90;99.90
13694;DHT22;6919;52.344;14.518;2023-08-30T03:46:12;14.00;99.90
13694;DHT22;6919;52.344;14.518;2023-08-30T03:48:40;14.00;99.90
13694;DHT22;6919;52.344;14.518;2023-08-30T03:51:09;14.00;99.90
13694;DHT22;6919;52.344;14.518;2023-08-30T03:53:37;13.90;99.90
13694;DHT22;6919;52.344;14.518;2023-08-30T03:56:05;13.90;99.90
13694;DHT22;6919;52.344;14.518;2023-08-30T03:58:35;13.90;99.90
13694;DHT22;6919;52.344;14.518;2023-08-30T04:01:04;13.90;99.90
13694;DHT22;6919;52.344;14.518;2023-08-30T04:03:33;14.00;99.90
13694;DHT22;6919;52.344;14.518;2023-08-30T04:06:03;14.00;99.90
13694;DHT22;6919;52.344;14.518;2023-08-30T04:08:32;13.90;99.90
13694;DHT22;6919;52.344;14.518;2023-08-30T04:11:02;14.00;99.90
13694;DHT22;6919;52.344;14.518;2023-08-30T04:13:30;14.00;99.90
13694;DHT22;6919;52.344;14.518;2023-08-30T04:15:59;13.90;99.90
13694;DHT22;6919;52.344;14.518;2023-08-30T04:18:28;14.00;99.90
13694;DHT22;6919;52.344;14.518;2023-08-30T04:20:57;14.00;99.90
13694;DHT22;6919;52.344;14.518;2023-08-30T04:23:28;14.00;99.90
13694;DHT22;6919;52.344;14.518;2023-08-30T04:25:57;14.00;99.90
13694;DHT22;6919;52.344;14.518;2023-08-30T04:28:25;14.00;99.90
13694;DHT22;6919;52.344;14.518;2023-08-30T04:30:54;14.00;99.90
13694;DHT22;6919;52.344;14.518;2023-08-30T04:33:25;14.00;99.90
13694;DHT22;6919;52.344;14.518;2023-08-30T04:35:54;14.00;99.90
13694;DHT22;6919;52.344;14.518;2023-08-30T04:38:23;14.10;99.90
13694;DHT22;6919;52.344;14.518;2023-08-30T04:40:57;14.00;99.90
13694;DHT22;6919;52.344;14.518;2023-08-30T04:43:26;14.00;99.90
13694;DHT22;6919;52.344;14.518;2023-08-30T04:45:54;14.00;99.90
13694;DHT22;6919;52.344;14.518;2023-08-30T04:48:24;14.10;99.90
13694;DHT22;6919;52.344;14.518;2023-08-30T04:50:59;14.10;99.90
13694;DHT22;6919;52.344;14.518;2023-08-30T04:53:30;14.10;99.90
13694;DHT22;6919;52.344;14.518;2023-08-30T04:55:59;14.10;99.90
13694;DHT22;6919;52.344;14.518;2023-08-30T04:58:27;14.10;99.90
13694;DHT22;6919;52.344;14.518;2023-08-30T05:00:56;14.10;99.90
13694;DHT22;6919;52.344;14.518;2023-08-30T05:03:26;14.10;99.90
13694;DHT22;6919;52.344;14.518;2023-08-30T05:05:59;14.10;99.90
13694;DHT22;6919;52.344;14.518;2023-08-30T05:08:27;14.10;99.90
13694;DHT22;6919;52.344;14.518;2023-08-30T05:10:55;14.20;99.90
13694;DHT22;6919;52.344;14.518;2023-08-30T05:13:24;14.00;99.90
13694;DHT22;6919;52.344;14.518;2023-08-30T05:15:52;14.00;99.90
13694;DHT22;6919;52.344;14.518;2023-08-30T05:18:20;14.00;99.90
13694;DHT22;6919;52.344;14.518;2023-08-30T05:20:50;14.10;99.90
13694;DHT22;6919;52.344;14.518;2023-08-30T05:23:18;14.00;99.90
13694;DHT22;6919;52.344;14.518;2023-08-30T05:25:47;14.10;99.90
13694;DHT22;6919;52.344;14.518;2023-08-30T05:28:15;14.10;99.90
13694;DHT22;6919;52.344;14.518;2023-08-30T05:30:44;14.20;99.90
13694;DHT22;6919;52.344;14.518;2023-08-30T05:33:12;14.10;99.90
13694;DHT22;6919;52.344;14.518;2023-08-30T05:35:41;14.10;99.90
13694;DHT22;6919;52.344;14.518;2023-08-30T05:38:11;14.10;99.90
13694;DHT22;6919;52.344;14.518;2023-08-30T05:40:39;14.20;99.90
13694;DHT22;6919;52.344;14.518;2023-08-30T05:43:09;14.30;99.90
13694;DHT22;6919;52.344;14.518;2023-08-30T05:45:37;14.30;99.90
13694;DHT22;6919;52.344;14.518;2023-08-30T05:48:06;14.30;99.90
13694;DHT22;6919;52.344;14.518;2023-08-30T05:50:35;14.40;99.90
13694;DHT22;6919;52.344;14.518;2023-08-30T05:53:03;14.40;99.90
13694;DHT22;6919;52.344;14.518;2023-08-30T05:55:33;14.40;99.90
13694;DHT22;6919;52.344;14.518;2023-08-30T05:58:01;14.40;99.90
13694;DHT22;6919;52.344;14.518;2023-08-30T06:00:29;14.40;99.90
13694;DHT22;6919;52.344;14.518;2023-08-30T06:02:58;14.50;99.90
13694;DHT22;6919;52.344;14.518;2023-08-30T06:05:26;14.40;99.90
13694;DHT22;6919;52.344;14.518;2023-08-30T06:07:54;14.50;99.90
13694;DHT22;6919;52.344;14.518;2023-08-30T06:10:23;14.60;99.90
13694;DHT22;6919;52.344;14.518;2023-08-30T06:12:52;14.60;99.90
13694;DHT22;6919;52.344;14.518;2023-08-30T06:15:21;14.70;99.90
13694;DHT22;6919;52.344;14.518;2023-08-30T06:17:49;14.70;99.90
13694;DHT22;6919;52.344;14.518;2023-08-30T06:20:17;14.80;99.90
13694;DHT22;6919;52.344;14.518;2023-08-30T06:22:46;14.90;99.90
13694;DHT22;6919;52.344;14.518;2023-08-30T06:25:14;14.90;99.90
13694;DHT22;6919;52.344;14.518;2023-08-30T06:27:54;15.00;99.90
13694;DHT22;6919;52.344;14.518;2023-08-30T06:30:25;15.00;99.90
13694;DHT22;6919;52.344;14.518;2023-08-30T06:32:53;15.00;99.90
13694;DHT22;6919;52.344;14.518;2023-08-30T06:35:22;15.10;99.90
13694;DHT22;6919;52.344;14.518;2023-08-30T06:37:50;15.10;99.90
13694;DHT22;6919;52.344;14.518;2023-08-30T06:40:19;15.10;99.90
13694;DHT22;6919;52.344;14.518;2023-08-30T06:42:47;15.10;99.90
13694;DHT22;6919;52.344;14.518;2023-08-30T06:45:17;15.00;99.90
13694;DHT22;6919;52.344;14.518;2023-08-30T06:47:45;15.10;99.90
13694;DHT22;6919;52.344;14.518;2023-08-30T06:50:16;15.00;99.90
13694;DHT22;6919;52.344;14.518;2023-08-30T06:52:44;15.10;99.90
13694;DHT22;6919;52.344;14.518;2023-08-30T06:55:12;15.10;99.90
13694;DHT22;6919;52.344;14.518;2023-08-30T06:57:41;15.20;99.90
13694;DHT22;6919;52.344;14.518;2023-08-30T07:00:10;15.30;99.90
13694;DHT22;6919;52.344;14.518;2023-08-30T07:02:40;15.30;99.90
13694;DHT22;6919;52.344;14.518;2023-08-30T07:05:11;15.20;99.90
13694;DHT22;6919;52.344;14.518;2023-08-30T07:07:40;15.30;99.90
13694;DHT22;6919;52.344;14.518;2023-08-30T07:10:09;15.30;99.90
13694;DHT22;6919;52.344;14.518;2023-08-30T07:12:37;15.40;99.90
13694;DHT22;6919;52.344;14.518;2023-08-30T07:15:07;15.50;99.90
13694;DHT22;6919;52.344;14.518;2023-08-30T07:17:36;15.60;99.90
13694;DHT22;6919;52.344;14.518;2023-08-30T07:20:25;15.70;99.90
13694;DHT22;6919;52.344;14.518;2023-08-30T07:22:53;15.70;99.90
13694;DHT22;6919;52.344;14.518;2023-08-30T07:25:22;15.70;99.90
13694;DHT22;6919;52.344;14.518;2023-08-30T07:27:50;15.80;99.90
13694;DHT22;6919;52.344;14.518;2023-08-30T07:30:19;15.90;99.90
13694;DHT22;6919;52.344;14.518;2023-08-30T07:32:47;16.00;99.90
13694;DHT22;6919;52.344;14.518;2023-08-30T07:35:16;15.90;99.90
13694;DHT22;6919;52.344;14.518;2023-08-30T07:37:46;16.10;99.90
13694;DHT22;6919;52.344;14.518;2023-08-30T07:40:14;16.10;99.90
13694;DHT22;6919;52.344;14.518;2023-08-30T07:42:42;16.10;99.90
13694;DHT22;6919;52.344;14.518;2023-08-30T07:45:11;16.10;99.90
13694;DHT22;6919;52.344;14.518;2023-08-30T07:47:40;16.10;99.90
13694;DHT22;6919;52.344;14.518;2023-08-30T07:50:08;16.10;99.90
13694;DHT22;6919;52.344;14.518;2023-08-30T07:52:37;16.30;99.90
13694;DHT22;6919;52.344;14.518;2023-08-30T07:55:14;16.40;99.90
13694;DHT22;6919;52.344;14.518;2023-08-30T07:57:42;16.50;99.90
13694;DHT22;6919;52.344;14.518;2023-08-30T08:00:12;16.80;99.90
13694;DHT22;6919;52.344;14.518;2023-08-30T08:02:41;17.00;99.90
13694;DHT22;6919;52.344;14.518;2023-08-30T08:05:09;17.10;99.90
13694;DHT22;6919;52.344;14.518;2023-08-30T08:07:38;17.20;99.90
13694;DHT22;6919;52.344;14.518;2023-08-30T08:10:08;17.30;99.90
13694;DHT22;6919;52.344;14.518;2023-08-30T08:12:38;17.20;99.90
13694;DHT22;6919;52.344;14.518;2023-08-30T08:15:07;17.30;99.90
13694;DHT22;6919;52.344;14.518;2023-08-30T08:17:36;17.30;99.90
13694;DHT22;6919;52.344;14.518;2023-08-30T08:20:05;17.30;99.90
13694;DHT22;6919;52.344;14.518;2023-08-30T08:22:34;17.40;99.90
13694;DHT22;6919;52.344;14.518;2023-08-30T08:25:02;17.30;99.90
13694;DHT22;6919;52.344;14.518;2023-08-30T08:27:31;17.40;99.90
13694;DHT22;6919;52.344;14.518;2023-08-30T08:30:00;17.40;99.90
13694;DHT22;6919;52.344;14.518;2023-08-30T08:32:30;17.50;99.90
13694;DHT22;6919;52.344;14.518;2023-08-30T08:35:00;17.30;99.90
13694;DHT22;6919;52.344;14.518;2023-08-30T08:37:29;17.60;99.90
13694;DHT22;6919;52.344;14.518;2023-08-30T08:39:59;17.50;99.90
13694;DHT22;6919;52.344;14.518;2023-08-30T08:42:31;17.30;99.90
13694;DHT22;6919;52.344;14.518;2023-08-30T08:45:02;17.40;99.90
13694;DHT22;6919;52.344;14.518;2023-08-30T08:47:31;17.40;99.90
13694;DHT22;6919;52.344;14.518;2023-08-30T08:50:00;17.50;99.90
13694;DHT22;6919;52.344;14.518;2023-08-30T08:52:30;17.60;99.90
13694;DHT22;6919;52.344;14.518;2023-08-30T08:55:16;17.60;99.90
13694;DHT22;6919;52.344;14.518;2023-08-30T08:57:45;17.80;99.90
13694;DHT22;6919;52.344;14.518;2023-08-30T09:00:17;18.00;99.90
13694;DHT22;6919;52.344;14.518;2023-08-30T09:02:46;18.20;99.90
13694;DHT22;6919;52.344;14.518;2023-08-30T09:05:15;18.40;99.90
13694;DHT22;6919;52.344;14.518;2023-08-30T09:07:45;18.40;99.90
13694;DHT22;6919;52.344;14.518;2023-08-30T09:10:13;18.50;99.90
13694;DHT22;6919;52.344;14.518;2023-08-30T09:12:42;18.70;99.90
13694;DHT22;6919;52.344;14.518;2023-08-30T09:15:10;18.70;99.90
13694;DHT22;6919;52.344;14.518;2023-08-30T09:17:40;18.80;99.90
13694;DHT22;6919;52.344;14.518;2023-08-30T09:20:11;18.80;99.90
13694;DHT22;6919;52.344;14.518;2023-08-30T09:22:41;18.90;99.90
13694;DHT22;6919;52.344;14.518;2023-08-30T09:25:22;19.00;99.90
13694;DHT22;6919;52.344;14.518;2023-08-30T09:27:51;19.30;99.90
13694;DHT22;6919;52.344;14.518;2023-08-30T09:30:24;19.40;99.90
13694;DHT22;6919;52.344;14.518;2023-08-30T09:33:00;19.30;99.90
13694;DHT22;6919;52.344;14.518;2023-08-30T09:35:30;19.20;99.90
13694;DHT22;6919;52.344;14.518;2023-08-30T09:37:58;19.10;99.90
13694;DHT22;6919;52.344;14.518;2023-08-30T09:40:27;19.20;99.90
13694;DHT22;6919;52.344;14.518;2023-08-30T09:42:58;19.30;99.90
13694;DHT22;6919;52.344;14.518;2023-08-30T09:45:39;19.40;99.90
13694;DHT22;6919;52.344;14.518;2023-08-30T09:48:09;19.60;99.90
13694;DHT22;6919;52.344;14.518;2023-08-30T09:50:39;19.60;99.90
13694;DHT22;6919;52.344;14.518;2023-08-30T09:53:09;19.70;99.90
13694;DHT22;6919;52.344;14.518;2023-08-30T09:55:44;19.80;99.90
13694;DHT22;6919;52.344;14.518;2023-08-30T09:58:12;19.80;99.90
13694;DHT22;6919;52.344;14.518;2023-08-30T10:00:46;20.00;99.90
13694;DHT22;6919;52.344;14.518;2023-08-30T10:03:16;19.80;99.90
13694;DHT22;6919;52.344;14.518;2023-08-30T10:05:58;20.10;99.90
13694;DHT22;6919;52.344;14.518;2023-08-30T10:08:29;20.10;99.90
13694;DHT22;6919;52.344;14.518;2023-08-30T10:10:58;20.00;99.90
13694;DHT22;6919;52.344;14.518;2023-08-30T10:13:29;20.20;99.90
13694;DHT22;6919;52.344;14.518;2023-08-30T10:16:01;20.20;99.90
13694;DHT22;6919;52.344;14.518;2023-08-30T10:18:35;20.30;99.90
13694;DHT22;6919;52.344;14.518;2023-08-30T10:21:12;20.40;99.90
13694;DHT22;6919;52.344;14.518;2023-08-30T10:23:42;20.90;99.90
13694;DHT22;6919;52.344;14.518;2023-08-30T10:26:14;20.90;99.90
13694;DHT22;6919;52.344;14.518;2023-08-30T10:28:44;20.80;99.90
13694;DHT22;6919;52.344;14.518;2023-08-30T10:31:13;20.60;99.90
13694;DHT22;6919;52.344;14.518;2023-08-30T10:33:49;20.60;99.90
13694;DHT22;6919;52.344;14.518;2023-08-30T10:36:21;20.40;99.90
13694;DHT22;6919;52.344;14.518;2023-08-30T10:38:51;20.50;99.90
13694;DHT22;6919;52.344;14.518;2023-08-30T10:41:21;20.60;99.90
13694;DHT22;6919;52.344;14.518;2023-08-30T10:43:51;20.70;99.90
13694;DHT22;6919;52.344;14.518;2023-08-30T10:46:34;20.90;99.90
13694;DHT22;6919;52.344;14.518;2023-08-30T10:49:11;20.50;99.90
13694;DHT22;6919;52.344;14.518;2023-08-30T10:51:41;20.40;99.90
13694;DHT22;6919;52.344;14.518;2023-08-30T10:54:11;20.60;99.90
13694;DHT22;6919;52.344;14.518;2023-08-30T10:56:48;20.80;99.90
13694;DHT22;6919;52.344;14.518;2023-08-30T10:59:23;20.60;99.90
13694;DHT22;6919;52.344;14.518;2023-08-30T11:01:52;20.70;99.90
13694;DHT22;6919;52.344;14.518;2023-08-30T11:04:24;20.70;99.90
13694;DHT22;6919;52.344;14.518;2023-08-30T11:06:52;21.10;99.90
13694;DHT22;6919;52.344;14.518;2023-08-30T11:09:23;20.70;99.90
13694;DHT22;6919;52.344;14.518;2023-08-30T11:11:53;20.80;99.90
13694;DHT22;6919;52.344;14.518;2023-08-30T11:14:21;21.20;99.90
13694;DHT22;6919;52.344;14.518;2023-08-30T11:16:49;21.20;99.90
13694;DHT22;6919;52.344;14.518;2023-08-30T11:19:18;21.00;99.90
13694;DHT22;6919;52.344;14.518;2023-08-30T11:21:49;21.10;99.90
13694;DHT22;6919;52.344;14.518;2023-08-30T11:24:17;21.30;99.90
13694;DHT22;6919;52.344;14.518;2023-08-30T11:26:46;20.90;99.90
13694;DHT22;6919;52.344;14.518;2023-08-30T11:29:20;21.10;99.90
13694;DHT22;6919;52.344;14.518;2023-08-30T11:31:49;21.10;99.90
13694;DHT22;6919;52.344;14.518;2023-08-30T11:34:20;21.20;99.90
13694;DHT22;6919;52.344;14.518;2023-08-30T11:36:51;20.80;99.90
13694;DHT22;6919;52.344;14.518;2023-08-30T11:39:20;20.80;99.90
13694;DHT22;6919;52.344;14.518;2023-08-30T11:41:50;21.00;99.90
13694;DHT22;6919;52.344;14.518;2023-08-30T11:44:23;21.10;99.90
13694;DHT22;6919;52.344;14.518;2023-08-30T11:46:57;20.90;99.90
13694;DHT22;6919;52.344;14.518;2023-08-30T11:49:27;20.80;99.90
13694;DHT22;6919;52.344;14.518;2023-08-30T11:51:57;21.10;99.90
13694;DHT22;6919;52.344;14.518;2023-08-30T11:54:27;21.00;99.90
13694;DHT22;6919;52.344;14.518;2023-08-30T11:56:55;21.10;99.90
13694;DHT22;6919;52.344;14.518;2023-08-30T11:59:24;20.90;99.90
13694;DHT22;6919;52.344;14.518;2023-08-30T12:01:52;20.70;99.90
13694;DHT22;6919;52.344;14.518;2023-08-30T12:04:21;20.80;99.90
13694;DHT22;6919;52.344;14.518;2023-08-30T12:06:51;21.10;99.90
13694;DHT22;6919;52.344;14.518;2023-08-30T12:09:22;21.00;99.90
13694;DHT22;6919;52.344;14.518;2023-08-30T12:11:50;21.40;99.90
13694;DHT22;6919;52.344;14.518;2023-08-30T12:14:19;21.40;99.90
13694;DHT22;6919;52.344;14.518;2023-08-30T12:16:47;21.20;99.90
13694;DHT22;6919;52.344;14.518;2023-08-30T12:19:15;20.80;99.90
13694;DHT22;6919;52.344;14.518;2023-08-30T12:21:47;20.80;99.90
13694;DHT22;6919;52.344;14.518;2023-08-30T12:24:15;20.80;99.90
13694;DHT22;6919;52.344;14.518;2023-08-30T12:26:45;20.70;99.90
13694;DHT22;6919;52.344;14.518;2023-08-30T12:29:13;20.60;99.90
13694;DHT22;6919;52.344;14.518;2023-08-30T12:31:42;20.80;99.90
13694;DHT22;6919;52.344;14.518;2023-08-30T12:34:10;20.80;99.90
13694;DHT22;6919;52.344;14.518;2023-08-30T12:36:38;20.60;99.90
13694;DHT22;6919;52.344;14.518;2023-08-30T12:39:06;20.90;99.90
13694;DHT22;6919;52.344;14.518;2023-08-30T12:41:35;20.70;99.90
13694;DHT22;6919;52.344;14.518;2023-08-30T12:44:05;20.80;99.90
13694;DHT22;6919;52.344;14.518;2023-08-30T12:46:33;20.70;99.90
13694;DHT22;6919;52.344;14.518;2023-08-30T12:49:01;21.00;99.90
13694;DHT22;6919;52.344;14.518;2023-08-30T12:51:30;21.10;99.90
13694;DHT22;6919;52.344;14.518;2023-08-30T12:53:58;21.20;99.90
13694;DHT22;6919;52.344;14.518;2023-08-30T12:56:26;21.30;99.90
13694;DHT22;6919;52.344;14.518;2023-08-30T12:58:55;21.30;99.90
13694;DHT22;6919;52.344;14.518;2023-08-30T13:01:24;21.60;99.90
13694;DHT22;6919;52.344;14.518;2023-08-30T13:03:53;21.70;99.90
13694;DHT22;6919;52.344;14.518;2023-08-30T13:06:21;21.60;99.90
13694;DHT22;6919;52.344;14.518;2023-08-30T13:08:49;21.80;99.90
13694;DHT22;6919;52.344;14.518;2023-08-30T13:11:17;22.20;99.90
13694;DHT22;6919;52.344;14.518;2023-08-30T13:13:46;22.00;95.60
13694;DHT22;6919;52.344;14.518;2023-08-30T13:16:14;21.90;95.20
13694;DHT22;6919;52.344;14.518;2023-08-30T13:18:44;21.70;97.30
13694;DHT22;6919;52.344;14.518;2023-08-30T13:21:12;21.70;96.00
13694;DHT22;6919;52.344;14.518;2023-08-30T13:23:42;22.00;95.30
13694;DHT22;6919;52.344;14.518;2023-08-30T13:26:11;22.20;92.50
13694;DHT22;6919;52.344;14.518;2023-08-30T13:28:39;22.60;91.50
13694;DHT22;6919;52.344;14.518;2023-08-30T13:31:07;22.60;90.80
13694;DHT22;6919;52.344;14.518;2023-08-30T13:33:35;22.90;91.90
13694;DHT22;6919;52.344;14.518;2023-08-30T13:36:06;22.60;91.00
13694;DHT22;6919;52.344;14.518;2023-08-30T13:38:34;22.60;87.00
13694;DHT22;6919;52.344;14.518;2023-08-30T13:41:03;22.80;82.70
13694;DHT22;6919;52.344;14.518;2023-08-30T13:43:32;22.70;83.50
13694;DHT22;6919;52.344;14.518;2023-08-30T13:46:00;22.60;86.10
13694;DHT22;6919;52.344;14.518;2023-08-30T13:48:28;22.50;89.30
13694;DHT22;6919;52.344;14.518;2023-08-30T13:50:56;22.40;88.00
13694;DHT22;6919;52.344;14.518;2023-08-30T13:53:26;22.20;86.90
13694;DHT22;6919;52.344;14.518;2023-08-30T13:55:54;22.30;80.90
13694;DHT22;6919;52.344;14.518;2023-08-30T13:58:23;21.90;89.10
13694;DHT22;6919;52.344;14.518;2023-08-30T14:00:51;21.60;91.90
13694;DHT22;6919;52.344;14.518;2023-08-30T14:03:20;21.40;88.10
13694;DHT22;6919;52.344;14.518;2023-08-30T14:05:49;21.30;88.80
13694;DHT22;6919;52.344;14.518;2023-08-30T14:08:17;21.30;92.60
13694;DHT22;6919;52.344;14.518;2023-08-30T14:10:47;21.20;95.20
13694;DHT22;6919;52.344;14.518;2023-08-30T14:13:15;21.10;96.80
13694;DHT22;6919;52.344;14.518;2023-08-30T14:15:44;20.80;96.70
13694;DHT22;6919;52.344;14.518;2023-08-30T14:18:13;20.70;99.10
13694;DHT22;6919;52.344;14.518;2023-08-30T14:20:42;20.70;98.30
13694;DHT22;6919;52.344;14.518;2023-08-30T14:23:11;20.50;96.30
13694;DHT22;6919;52.344;14.518;2023-08-30T14:25:42;20.40;99.30
13694;DHT22;6919;52.344;14.518;2023-08-30T14:28:11;20.50;99.90
13694;DHT22;6919;52.344;14.518;2023-08-30T14:30:40;20.60;99.90
13694;DHT22;6919;52.344;14.518;2023-08-30T14:33:08;20.40;98.20
13694;DHT22;6919;52.344;14.518;2023-08-30T14:35:41;20.30;98.60
13694;DHT22;6919;52.344;14.518;2023-08-30T14:38:10;20.20;99.90
13694;DHT22;6919;52.344;14.518;2023-08-30T14:40:39;20.30;99.90
13694;DHT22;6919;52.344;14.518;2023-08-30T14:43:07;20.30;99.90
13694;DHT22;6919;52.344;14.518;2023-08-30T14:45:37;20.50;99.90
13694;DHT22;6919;52.344;14.518;2023-08-30T14:48:06;20.50;99.90
13694;DHT22;6919;52.344;14.518;2023-08-30T14:50:35;20.50;99.90
13694;DHT22;6919;52.344;14.518;2023-08-30T14:53:04;20.60;99.90
13694;DHT22;6919;52.344;14.518;2023-08-30T14:55:33;20.70;99.90
13694;DHT22;6919;52.344;14.518;2023-08-30T14:58:02;21.20;99.90
13694;DHT22;6919;52.344;14.518;2023-08-30T15:00:30;21.00;99.30
13694;DHT22;6919;52.344;14.518;2023-08-30T15:03:00;20.70;99.30
13694;DHT22;6919;52.344;14.518;2023-08-30T15:05:29;20.70;99.90
13694;DHT22;6919;52.344;14.518;2023-08-30T15:07:57;20.60;99.50
13694;DHT22;6919;52.344;14.518;2023-08-30T15:10:26;20.40;99.10
13694;DHT22;6919;52.344;14.518;2023-08-30T15:12:54;20.20;99.90
13694;DHT22;6919;52.344;14.518;2023-08-30T15:15:23;20.10;99.90
13694;DHT22;6919;52.344;14.518;2023-08-30T15:17:51;20.10;99.90
13694;DHT22;6919;52.344;14.518;2023-08-30T15:20:21;20.10;99.90
13694;DHT22;6919;52.344;14.518;2023-08-30T15:22:51;20.00;99.90
13694;DHT22;6919;52.344;14.518;2023-08-30T15:25:20;20.10;99.90
13694;DHT22;6919;52.344;14.518;2023-08-30T15:27:48;20.30;99.90
13694;DHT22;6919;52.344;14.518;2023-08-30T15:30:17;20.30;99.90
13694;DHT22;6919;52.344;14.518;2023-08-30T15:32:46;20.30;99.90
13694;DHT22;6919;52.344;14.518;2023-08-30T15:35:14;20.10;99.90
13694;DHT22;6919;52.344;14.518;2023-08-30T15:37:44;19.90;99.90
13694;DHT22;6919;52.344;14.518;2023-08-30T15:40:12;19.90;99.90
13694;DHT22;6919;52.344;14.518;2023-08-30T15:42:41;20.00;99.90
13694;DHT22;6919;52.344;14.518;2023-08-30T15:45:09;19.90;99.90